Flight Track Log - Related Links

Times and Time Zones

All times are in EDT time to prevent confusion due to time zone crossing. See the N5946C flight status page for this flight to view local times or setup timezone preferences in your user account.

Time Position Orientation Groundspeed Altitude Reporting Facility
EDT Latitude Longitude Course Direction KTS MPH feet Rate Location/Type
Tue 09:17:56 AM 41.0167 -72.3667 47° Northeast 106 122 7,100  Level New York TRACON
Tue 09:18:43 AM 41.0269 -72.3439 59° Northeast 105 121 7,500 211 Climbing Boston Center
Tue 09:19:50 AM 41.0436 -72.2997 63° Northeast 133 153 7,500  Level Boston Center
Tue 09:20:52 AM 41.0664 -72.2556 56° Northeast 140 161 7,500  Level Boston Center
Tue 09:21:52 AM 41.0914 -72.2142 51° Northeast 148 170 7,500 62 Level Boston Center
Tue 09:23:00 AM 41.0696 -72.0788 47° Northeast  Level Estimated
Tue 09:23:00 AM 41.1146 -72.1730 49° Northeast  Level Estimated
Tue 09:24:06 AM 41.1392 -72.1094 49° Northeast 144 166 7,700  Level Boston Center
Tue 09:25:06 AM 41.1597 -72.0625 60° Northeast 149 171 7,700  Level Boston Center
Tue 09:25:52 AM 41.1783 -72.0236 58° Northeast 151 174 7,700 -47 Level Boston Center
Tue 09:27:14 AM 41.2094 -71.9600 57° Northeast 157 181 7,600 -94 Descending Boston Center
Tue 09:28:00 AM 41.2322 -71.9239 50° Northeast 156 180 7,500 -110 Descending Boston Center
Tue 09:29:03 AM 41.2611 -71.8794 49° Northeast 154 177 7,400 48 Descending Boston Center
Tue 09:30:04 AM 41.2858 -71.8350 53° Northeast 151 174 7,600 149 Climbing Boston Center
Tue 09:31:04 AM 41.3128 -71.7933 49° Northeast 143 165 7,700 50 Climbing Boston Center
Tue 09:32:04 AM 41.3375 -71.7489 53° Northeast 150 173 7,700 -50 Level Boston Center
Tue 09:33:05 AM 41.3622 -71.6989 57° Northeast 156 180 7,600 -52 Descending Boston Center
Tue 09:33:59 AM 41.3828 -71.6572 57° Northeast 153 176 7,600  Level Boston Center
Tue 09:35:00 AM 41.4075 -71.6097 55° Northeast 153 176 7,600  Level Boston Center
Tue 09:36:19 AM 41.4425 -71.5511 51° Northeast 154 177 7,600  Level Boston Center
Tue 09:37:02 AM 41.4608 -71.5150 56° Northeast 153 176 7,600 -58 Level Boston Center
Tue 09:38:02 AM 41.4856 -71.4675 55° Northeast 156 180 7,500 -221 Descending Boston Center
Tue 09:39:18 AM 41.5225 -71.4169 46° Northeast 162 186 7,100 -441 Descending Boston Center
Tue 09:40:18 AM 41.5514 -71.3694 51° Northeast 167 192 6,500 -550 Descending Boston Center
Tue 09:41:07 AM 41.5758 -71.3300 50° Northeast 167 192 6,100 -590 Descending Boston Center
Tue 09:42:20 AM 41.6169 -71.2767 44° Northeast 165 190 5,300 -706 Descending Boston Center
Tue 09:43:06 AM 41.6397 -71.2400 50° Northeast 163 188 4,700 -655 Descending Boston Center
Tue 09:44:10 AM 41.6683 -71.1922 51° Northeast 165 190 4,100 -541 Descending Boston Center
Tue 09:45:08 AM 41.6947 -71.1417 55° Northeast 162 186 3,600 -545 Descending Boston Center
Tue 09:46:11 AM 41.7214 -71.0911 55° Northeast 160 184 3,000 -484 Descending Boston Center
Tue 09:47:12 AM 41.7458 -71.0461 54° Northeast 155 178 2,600 -397 Descending Boston Center
Tue 09:48:12 AM 41.7744 -71.0008 50° Northeast 151 174 2,200 -236 Descending Boston Center
Tue 09:49:19 AM 41.7967 -70.9503 59° Northeast 141 162 2,100 -90 Descending Boston Center
Tue 09:51:00 AM 41.8149 -70.8614 52° Northeast  Level FlightAware Approximate
Tue 09:58:00 AM 41.9000 -70.7167 51° Northeast  Level FlightAware Approximate
Tue 09:59:00 AM 41.9090 -70.7288 51° Northeast  Level Estimated

Login

Don't have an account? Register now (free) for customized features, flight alerts, and more!